createdAt,value
2022-09-15T00:01:08.121Z,65.34
2022-09-15T00:03:42.286Z,65.20
2022-09-15T00:06:17.332Z,65.14
2022-09-15T00:19:29.329Z,65.28
2022-09-15T00:22:02.763Z,65.24
2022-09-15T00:24:36.314Z,65.37
2022-09-15T00:27:09.831Z,65.34
2022-09-15T00:29:43.297Z,65.35
2022-09-15T00:46:22.302Z,64.67
2022-09-15T00:49:12.341Z,65.00
2022-09-15T00:51:52.306Z,64.69
2022-09-15T00:54:40.293Z,65.00
2022-09-15T00:57:21.027Z,65.13
2022-09-15T01:00:06.292Z,65.20
2022-09-15T01:13:21.273Z,64.88
2022-09-15T01:16:08.884Z,65.21
2022-09-15T01:19:01.262Z,65.06
2022-09-15T01:21:45.676Z,64.89
2022-09-15T01:24:54.284Z,65.10
2022-09-15T01:38:29.304Z,64.63
2022-09-15T01:41:08.901Z,65.17
2022-09-15T01:43:59.277Z,64.87
2022-09-15T01:46:38.896Z,64.83
2022-09-15T01:49:26.278Z,64.86
2022-09-15T01:52:00.059Z,64.82
2022-09-15T02:05:07.267Z,64.94
2022-09-15T02:08:00.842Z,65.34
2022-09-15T02:10:44.614Z,65.24
2022-09-15T02:13:36.304Z,64.81
2022-09-15T02:16:17.478Z,64.79
2022-09-15T02:19:23.341Z,64.91
2022-09-15T02:22:06.182Z,65.02
2022-09-15T02:31:50.382Z,64.89
2022-09-15T02:34:37.447Z,64.96
2022-09-15T02:37:20.309Z,64.93
2022-09-15T02:39:57.058Z,64.65
2022-09-15T02:42:39.309Z,64.93
2022-09-15T02:45:12.632Z,64.93
2022-09-15T02:58:33.231Z,64.92
2022-09-15T03:01:15.375Z,64.61
2022-09-15T03:03:50.131Z,64.75
2022-09-15T03:06:30.304Z,64.75
2022-09-15T03:09:07.283Z,64.70
2022-09-15T03:25:18.308Z,64.92
2022-09-15T03:27:51.648Z,64.93
2022-09-15T03:30:25.326Z,64.80
2022-09-15T03:32:58.681Z,65.16
2022-09-15T03:35:32.284Z,65.03
2022-09-15T03:38:05.872Z,64.70
2022-09-15T03:40:41.293Z,65.03
2022-09-15T03:54:02.295Z,64.54
2022-09-15T03:56:38.149Z,64.49
2022-09-15T03:59:13.272Z,64.37
2022-09-15T04:01:47.373Z,64.39
2022-09-15T04:04:22.308Z,64.68
2022-09-15T04:06:55.722Z,64.33
2022-09-15T04:19:46.221Z,64.33
2022-09-15T04:22:26.286Z,64.28
2022-09-15T04:24:59.677Z,64.22
2022-09-15T04:27:40.296Z,64.37
2022-09-15T04:30:13.919Z,64.24
2022-09-15T04:46:29.306Z,63.74
2022-09-15T04:49:03.234Z,63.75
2022-09-15T04:51:37.297Z,64.15
2022-09-15T04:54:10.749Z,63.95
2022-09-15T04:56:45.324Z,63.66
2022-09-15T04:59:19.717Z,64.00
2022-09-15T05:01:55.393Z,63.99
2022-09-15T05:12:18.258Z,63.70
2022-09-15T05:14:58.316Z,63.67
2022-09-15T05:17:34.629Z,63.72
2022-09-15T05:20:17.668Z,63.70
2022-09-15T05:22:51.638Z,63.66
2022-09-15T05:25:25.279Z,63.69
2022-09-15T05:39:07.298Z,63.79
2022-09-15T05:41:40.814Z,63.79
2022-09-15T05:44:16.299Z,63.60
2022-09-15T05:46:50.174Z,63.61
2022-09-15T05:49:24.286Z,63.67
2022-09-15T05:51:57.571Z,63.82
2022-09-15T06:08:13.299Z,63.80
2022-09-15T06:10:46.661Z,63.95
2022-09-15T06:13:20.296Z,64.01
2022-09-15T06:15:53.940Z,63.88
2022-09-15T06:18:27.288Z,64.09
2022-09-15T06:21:07.708Z,63.70
2022-09-15T06:34:06.227Z,64.00
2022-09-15T06:36:47.276Z,63.74
2022-09-15T06:39:20.619Z,63.71
2022-09-15T06:42:02.263Z,63.77
2022-09-15T06:44:37.098Z,63.83
2022-09-15T06:47:11.292Z,63.97
2022-09-15T07:00:23.274Z,63.72
2022-09-15T07:02:56.812Z,63.64
2022-09-15T07:05:30.307Z,63.94
2022-09-15T07:08:04.216Z,63.68
2022-09-15T07:10:38.317Z,63.81
2022-09-15T07:13:11.938Z,63.64
2022-09-15T07:15:47.274Z,63.43
2022-09-15T07:26:19.274Z,63.40
2022-09-15T07:29:04.383Z,63.13
2022-09-15T07:31:39.835Z,63.14
2022-09-15T07:34:14.348Z,63.05
2022-09-15T07:36:48.887Z,63.00
2022-09-15T07:39:24.728Z,62.99
2022-09-15T07:41:59.216Z,62.86
2022-09-15T07:54:49.271Z,62.84
2022-09-15T07:57:29.355Z,63.14
2022-09-15T08:00:05.068Z,62.77
2022-09-15T08:02:45.327Z,63.04
2022-09-15T08:05:18.908Z,62.81
2022-09-15T08:21:34.289Z,62.74
2022-09-15T08:24:18.528Z,62.75
2022-09-15T08:26:58.317Z,62.79
2022-09-15T08:29:31.791Z,62.94
2022-09-15T08:32:06.728Z,63.06
2022-09-15T08:34:40.947Z,63.06
2022-09-15T08:37:16.308Z,62.93
2022-09-15T08:47:18.247Z,62.55
2022-09-15T08:50:08.308Z,62.57
2022-09-15T08:52:50.727Z,62.35
2022-09-15T08:55:44.348Z,62.51
2022-09-15T08:58:21.450Z,62.37
2022-09-15T09:01:14.382Z,62.06
2022-09-15T09:14:41.288Z,61.54
2022-09-15T09:17:39.167Z,60.97
2022-09-15T09:20:40.307Z,61.17
2022-09-15T09:23:19.806Z,61.25
2022-09-15T09:26:02.287Z,61.15
2022-09-15T09:39:53.360Z,61.01
2022-09-15T09:42:31.807Z,61.01
2022-09-15T09:45:17.316Z,61.40
2022-09-15T09:47:50.771Z,61.67
2022-09-15T09:50:44.289Z,61.46
2022-09-15T09:53:28.241Z,61.57
2022-09-15T09:56:32.307Z,61.63
2022-09-15T10:06:37.268Z,60.84
2022-09-15T10:09:24.348Z,61.05
2022-09-15T10:12:02.751Z,60.97
2022-09-15T10:14:47.351Z,61.03
2022-09-15T10:17:25.907Z,60.87
2022-09-15T10:20:06.310Z,61.19
2022-09-15T10:33:33.236Z,60.62
2022-09-15T10:36:14.649Z,60.60
2022-09-15T10:39:05.309Z,60.47
2022-09-15T10:41:49.968Z,60.25
2022-09-15T10:44:47.308Z,60.04
2022-09-15T11:02:04.319Z,60.26
2022-09-15T11:05:09.327Z,59.81
2022-09-15T11:08:07.367Z,59.89
2022-09-15T11:11:00.327Z,59.35
2022-09-15T11:13:53.661Z,59.51
2022-09-15T11:16:53.307Z,59.84
2022-09-15T11:26:55.295Z,60.17
2022-09-15T11:29:54.307Z,59.94
2022-09-15T11:32:40.308Z,59.68
2022-09-15T11:35:49.487Z,59.79
2022-09-15T11:38:36.987Z,60.15
2022-09-15T11:54:49.368Z,59.71
2022-09-15T11:57:31.808Z,59.07
2022-09-15T12:00:19.329Z,58.82
2022-09-15T12:03:11.877Z,58.17
2022-09-15T12:06:00.308Z,58.62
2022-09-15T12:22:48.250Z,58.05
2022-09-15T12:25:38.327Z,57.92
2022-09-15T12:28:40.867Z,57.24
2022-09-15T12:31:40.362Z,57.35
2022-09-15T12:34:36.088Z,56.85
2022-09-15T12:37:21.668Z,57.05
2022-09-15T12:47:30.307Z,56.89
2022-09-15T12:50:29.328Z,56.95
2022-09-15T12:53:18.509Z,56.49
2022-09-15T12:56:02.327Z,55.72
2022-09-15T12:58:40.867Z,54.76
2022-09-15T13:01:39.311Z,54.69
2022-09-15T13:14:54.288Z,53.63
2022-09-15T13:17:29.061Z,53.70
2022-09-15T13:20:20.328Z,54.09
2022-09-15T13:22:55.769Z,53.52
2022-09-15T13:25:35.287Z,53.36
2022-09-15T13:42:55.288Z,52.63
2022-09-15T13:45:57.355Z,51.81
2022-09-15T13:49:07.148Z,52.18
2022-09-15T13:51:59.309Z,52.05
2022-09-15T13:54:32.807Z,51.95
2022-09-15T13:57:08.328Z,52.77
2022-09-15T14:07:29.269Z,52.60
2022-09-15T14:10:10.348Z,52.96
2022-09-15T14:12:44.028Z,53.23
2022-09-15T14:15:29.676Z,53.67
2022-09-15T14:18:04.232Z,53.56
2022-09-15T14:20:39.451Z,53.73
2022-09-15T14:34:24.567Z,53.76
2022-09-15T14:37:08.685Z,53.17
2022-09-15T14:40:05.732Z,54.03
2022-09-15T14:42:41.208Z,54.26
2022-09-15T15:02:33.343Z,54.66
2022-09-15T15:08:08.977Z,54.70
2022-09-15T15:10:49.314Z,54.94
2022-09-15T15:13:22.897Z,55.20
2022-09-15T15:15:57.239Z,55.76
2022-09-15T15:29:09.239Z,55.75
2022-09-15T15:31:42.661Z,55.83
2022-09-15T15:34:31.241Z,56.07
2022-09-15T15:37:16.250Z,55.77
2022-09-15T15:39:56.348Z,55.56
2022-09-15T15:56:37.201Z,53.88
2022-09-15T15:59:20.302Z,54.65
2022-09-15T16:01:53.771Z,54.19
2022-09-15T16:04:27.290Z,53.94
2022-09-15T16:07:00.769Z,53.82
2022-09-15T16:09:34.250Z,54.13
2022-09-15T16:22:46.269Z,53.43
2022-09-15T16:25:34.505Z,53.23
2022-09-15T16:28:14.246Z,53.32
2022-09-15T16:30:47.824Z,53.41
2022-09-15T16:33:24.281Z,53.35
2022-09-15T16:36:00.639Z,53.43
2022-09-15T16:48:58.201Z,53.32
2022-09-15T16:51:39.497Z,54.01
2022-09-15T16:54:18.050Z,53.75
2022-09-15T16:56:58.261Z,54.05
2022-09-15T16:59:31.570Z,53.78
2022-09-15T17:15:47.299Z,54.24
2022-09-15T17:18:21.634Z,54.46
2022-09-15T17:20:56.222Z,54.26
2022-09-15T17:23:34.550Z,54.58
2022-09-15T17:26:20.260Z,54.49
2022-09-15T17:28:53.616Z,54.52
2022-09-15T17:31:30.326Z,54.62
2022-09-15T17:41:28.224Z,54.79
2022-09-15T17:44:08.289Z,54.79
2022-09-15T17:46:43.633Z,55.08
2022-09-15T17:49:17.234Z,55.07
2022-09-15T17:51:50.575Z,55.16
2022-09-15T17:54:24.822Z,55.32
2022-09-15T18:08:12.232Z,55.63
2022-09-15T18:10:45.928Z,55.63
2022-09-15T18:13:23.244Z,55.28
2022-09-15T18:16:00.022Z,55.20
2022-09-15T18:18:40.232Z,55.16
2022-09-15T18:21:25.652Z,55.34
2022-09-15T18:34:58.197Z,54.98
2022-09-15T18:37:38.223Z,54.89
2022-09-15T18:40:15.250Z,54.85
2022-09-15T18:42:55.281Z,54.86
2022-09-15T18:45:28.744Z,54.50
2022-09-15T18:48:02.237Z,54.68
2022-09-15T18:50:38.390Z,54.49
2022-09-15T19:03:27.215Z,54.77
2022-09-15T19:06:12.227Z,54.75
2022-09-15T19:08:45.583Z,55.04
2022-09-15T19:11:19.199Z,55.03
2022-09-15T19:13:52.948Z,55.16
2022-09-15T19:16:46.672Z,54.97
2022-09-15T19:29:58.262Z,55.46
2022-09-15T19:32:33.401Z,55.42
2022-09-15T19:35:07.202Z,55.88
2022-09-15T19:37:42.615Z,55.97
2022-09-15T19:40:20.286Z,55.93
2022-09-15T19:56:58.174Z,55.90
2022-09-15T19:59:38.209Z,56.12
2022-09-15T20:02:11.652Z,56.34
2022-09-15T20:04:46.246Z,56.30
2022-09-15T20:07:19.575Z,56.60
2022-09-15T20:09:53.214Z,56.56
2022-09-15T20:23:05.281Z,56.63
2022-09-15T20:25:38.573Z,56.54
2022-09-15T20:28:12.259Z,56.75
2022-09-15T20:30:45.558Z,56.67
2022-09-15T20:33:19.307Z,56.50
2022-09-15T20:35:53.242Z,56.43
2022-09-15T20:48:43.213Z,56.30
2022-09-15T20:51:26.233Z,56.40
2022-09-15T20:54:02.599Z,56.55
2022-09-15T20:56:43.226Z,56.53
2022-09-15T20:59:16.587Z,56.28
2022-09-15T21:01:50.278Z,56.43
2022-09-15T21:04:25.525Z,56.52
2022-09-15T21:17:14.232Z,56.70
2022-09-15T21:19:56.273Z,56.84
2022-09-15T21:22:29.822Z,56.57
2022-09-15T21:25:03.294Z,56.86
2022-09-15T21:27:36.952Z,56.91
2022-09-15T21:30:12.252Z,56.65
2022-09-15T21:43:24.272Z,56.66
2022-09-15T21:45:58.547Z,56.55
2022-09-15T21:48:32.301Z,56.65
2022-09-15T21:51:07.096Z,56.44
2022-09-15T21:53:41.313Z,56.44
2022-09-15T21:56:15.020Z,56.33
2022-09-15T22:09:05.219Z,56.35
2022-09-15T22:11:46.419Z,56.17
2022-09-15T22:14:19.879Z,56.36
2022-09-15T22:16:53.321Z,56.27
2022-09-15T22:19:30.307Z,56.34
2022-09-15T22:22:04.318Z,56.27
2022-09-15T22:24:39.735Z,56.24
2022-09-15T22:37:28.227Z,58.02
2022-09-15T22:40:11.290Z,58.75
2022-09-15T22:42:45.866Z,59.07
2022-09-15T22:45:19.288Z,59.55
2022-09-15T22:47:52.729Z,59.95
2022-09-15T22:50:26.307Z,60.10
2022-09-15T23:03:38.317Z,59.78
2022-09-15T23:06:11.931Z,60.06
2022-09-15T23:08:45.427Z,59.96
2022-09-15T23:11:19.588Z,60.24
2022-09-15T23:13:54.427Z,60.18
2022-09-15T23:16:30.553Z,60.12
2022-09-15T23:29:28.228Z,59.77
2022-09-15T23:32:09.268Z,59.82
2022-09-15T23:34:42.827Z,59.69
2022-09-15T23:37:16.247Z,59.70
2022-09-15T23:39:49.768Z,59.71
2022-09-15T23:42:30.288Z,59.71
2022-09-15T23:45:07.188Z,59.80
2022-09-15T23:58:02.227Z,59.50
